Portada
METAR-TAF:

METAR-TAF

Aeroports :

Bradshaw Army Air Field

Bradshaw, Hawaii, Estats Units d'Amèrica

latitud: 19-47N, longitud: 155-33W, altitud: 1887 m

Observació

L'informe es va fer fa 1 hora i 4 minuts, a les 21:58 UTC
Vent 23 kt del Sud-Est amb ràfegues de 29 kt
Temperatura 26°C
Humitat 18%
Pressió 1027 hPa
Visibilitat: 16.1 km
Escasses núvols a una alçada de 28000 ft

METAR: PHSF 102158Z AUTO 13023G29KT 10SM FEW280 26/00 A3032 RMK AO2 PK WND 11031/03 SLP131 T02560003 $

Hora: 13:02 (23:02 UTC)


TAF: manca

Observacions i pronòstics meteorològics de més de 4000 aeroports (METAR i TAF).

Les estacions disponibles són els punts grocs i vermells al mapa.

Posi el ratolí al punt desitjat per veure el nom de l'estació.

Feu clic per veure les observacions i els pronòstics meteorològics.

Per canviar el mapa: feu clic els botons verds amb una creu de color negre per apropar; al botó verd amb un guió per allunyar la imatge; o en les fletxes verdes per a mapes adjacents.


METAR-TAF: